sensor_id;sensor_type;location;lat;lon;timestamp;temperature;humidity
25914;DHT22;13718;50.922;5.346;2022-09-02T00:01:36;19.60;81.40
25914;DHT22;13718;50.922;5.346;2022-09-02T00:04:05;19.60;81.50
25914;DHT22;13718;50.922;5.346;2022-09-02T00:06:32;19.50;81.60
25914;DHT22;13718;50.922;5.346;2022-09-02T00:08:59;19.70;81.40
25914;DHT22;13718;50.922;5.346;2022-09-02T00:11:29;19.60;81.70
25914;DHT22;13718;50.922;5.346;2022-09-02T00:13:56;19.50;81.80
25914;DHT22;13718;50.922;5.346;2022-09-02T00:16:22;19.40;82.20
25914;DHT22;13718;50.922;5.346;2022-09-02T00:18:49;19.40;82.70
25914;DHT22;13718;50.922;5.346;2022-09-02T00:21:17;19.30;82.80
25914;DHT22;13718;50.922;5.346;2022-09-02T00:23:43;19.40;83.00
25914;DHT22;13718;50.922;5.346;2022-09-02T00:26:10;19.40;83.10
25914;DHT22;13718;50.922;5.346;2022-09-02T00:28:37;19.50;82.90
25914;DHT22;13718;50.922;5.346;2022-09-02T00:31:03;19.40;83.00
25914;DHT22;13718;50.922;5.346;2022-09-02T00:33:29;19.40;83.10
25914;DHT22;13718;50.922;5.346;2022-09-02T00:36:01;19.30;83.50
25914;DHT22;13718;50.922;5.346;2022-09-02T00:38:28;19.20;84.00
25914;DHT22;13718;50.922;5.346;2022-09-02T00:40:54;19.20;84.00
25914;DHT22;13718;50.922;5.346;2022-09-02T00:43:50;19.20;84.20
25914;DHT22;13718;50.922;5.346;2022-09-02T00:46:18;19.20;84.30
25914;DHT22;13718;50.922;5.346;2022-09-02T00:51:20;19.30;84.20
25914;DHT22;13718;50.922;5.346;2022-09-02T00:53:47;19.30;84.40
25914;DHT22;13718;50.922;5.346;2022-09-02T00:56:21;19.40;84.50
25914;DHT22;13718;50.922;5.346;2022-09-02T00:58:48;19.40;84.40
25914;DHT22;13718;50.922;5.346;2022-09-02T01:01:15;19.50;84.00
25914;DHT22;13718;50.922;5.346;2022-09-02T01:03:41;19.50;84.10
25914;DHT22;13718;50.922;5.346;2022-09-02T01:06:09;19.40;84.30
25914;DHT22;13718;50.922;5.346;2022-09-02T01:08:36;19.40;84.40
25914;DHT22;13718;50.922;5.346;2022-09-02T01:11:04;19.40;84.40
25914;DHT22;13718;50.922;5.346;2022-09-02T01:13:34;19.50;84.40
25914;DHT22;13718;50.922;5.346;2022-09-02T01:18:40;19.60;84.10
25914;DHT22;13718;50.922;5.346;2022-09-02T01:21:08;19.50;84.40
25914;DHT22;13718;50.922;5.346;2022-09-02T01:23:35;19.50;84.50
25914;DHT22;13718;50.922;5.346;2022-09-02T01:26:02;19.50;84.70
25914;DHT22;13718;50.922;5.346;2022-09-02T01:28:29;19.50;84.80
25914;DHT22;13718;50.922;5.346;2022-09-02T01:30:58;19.40;84.80
25914;DHT22;13718;50.922;5.346;2022-09-02T01:33:23;19.50;85.10
25914;DHT22;13718;50.922;5.346;2022-09-02T01:35:50;19.50;85.10
25914;DHT22;13718;50.922;5.346;2022-09-02T01:38:16;19.40;85.10
25914;DHT22;13718;50.922;5.346;2022-09-02T01:40:42;19.50;85.00
25914;DHT22;13718;50.922;5.346;2022-09-02T01:43:15;19.50;84.70
25914;DHT22;13718;50.922;5.346;2022-09-02T01:45:42;19.60;84.60
25914;DHT22;13718;50.922;5.346;2022-09-02T01:48:14;19.70;84.20
25914;DHT22;13718;50.922;5.346;2022-09-02T01:50:43;19.70;83.90
25914;DHT22;13718;50.922;5.346;2022-09-02T01:53:09;19.70;84.20
25914;DHT22;13718;50.922;5.346;2022-09-02T01:55:34;19.60;84.90
25914;DHT22;13718;50.922;5.346;2022-09-02T01:58:00;19.80;84.40
25914;DHT22;13718;50.922;5.346;2022-09-02T02:00:27;19.70;84.50
25914;DHT22;13718;50.922;5.346;2022-09-02T02:02:53;19.70;84.60
25914;DHT22;13718;50.922;5.346;2022-09-02T02:05:19;19.60;84.60
25914;DHT22;13718;50.922;5.346;2022-09-02T02:07:45;19.60;85.00
25914;DHT22;13718;50.922;5.346;2022-09-02T02:10:14;19.60;85.30
25914;DHT22;13718;50.922;5.346;2022-09-02T02:12:42;19.60;85.50
25914;DHT22;13718;50.922;5.346;2022-09-02T02:15:12;19.60;85.60
25914;DHT22;13718;50.922;5.346;2022-09-02T02:17:38;19.60;85.80
25914;DHT22;13718;50.922;5.346;2022-09-02T02:20:05;19.60;85.70
25914;DHT22;13718;50.922;5.346;2022-09-02T02:22:31;19.60;85.80
25914;DHT22;13718;50.922;5.346;2022-09-02T02:24:57;19.60;86.00
25914;DHT22;13718;50.922;5.346;2022-09-02T02:27:23;19.60;86.30
25914;DHT22;13718;50.922;5.346;2022-09-02T02:29:48;19.50;86.40
25914;DHT22;13718;50.922;5.346;2022-09-02T02:32:14;19.60;86.60
25914;DHT22;13718;50.922;5.346;2022-09-02T02:34:43;19.60;86.80
25914;DHT22;13718;50.922;5.346;2022-09-02T02:37:08;19.70;86.60
25914;DHT22;13718;50.922;5.346;2022-09-02T02:39:36;19.70;86.60
25914;DHT22;13718;50.922;5.346;2022-09-02T02:42:02;19.70;86.50
25914;DHT22;13718;50.922;5.346;2022-09-02T02:44:28;19.70;86.70
25914;DHT22;13718;50.922;5.346;2022-09-02T02:46:53;19.70;86.80
25914;DHT22;13718;50.922;5.346;2022-09-02T02:49:19;19.80;87.00
25914;DHT22;13718;50.922;5.346;2022-09-02T02:51:47;19.90;86.70
25914;DHT22;13718;50.922;5.346;2022-09-02T02:54:13;19.80;86.60
25914;DHT22;13718;50.922;5.346;2022-09-02T02:56:39;19.90;86.50
25914;DHT22;13718;50.922;5.346;2022-09-02T02:59:04;20.00;85.90
25914;DHT22;13718;50.922;5.346;2022-09-02T03:01:31;20.10;85.40
25914;DHT22;13718;50.922;5.346;2022-09-02T03:03:57;20.10;85.30
25914;DHT22;13718;50.922;5.346;2022-09-02T03:06:23;20.10;85.20
25914;DHT22;13718;50.922;5.346;2022-09-02T03:08:49;20.00;85.70
25914;DHT22;13718;50.922;5.346;2022-09-02T03:11:15;19.90;86.00
25914;DHT22;13718;50.922;5.346;2022-09-02T03:13:42;19.90;85.60
25914;DHT22;13718;50.922;5.346;2022-09-02T03:16:07;19.90;85.70
25914;DHT22;13718;50.922;5.346;2022-09-02T03:18:34;20.00;85.20
25914;DHT22;13718;50.922;5.346;2022-09-02T03:20:59;20.00;84.80
25914;DHT22;13718;50.922;5.346;2022-09-02T03:23:25;20.10;84.50
25914;DHT22;13718;50.922;5.346;2022-09-02T03:25:51;20.20;84.20
25914;DHT22;13718;50.922;5.346;2022-09-02T03:28:17;20.30;84.00
25914;DHT22;13718;50.922;5.346;2022-09-02T03:30:44;20.20;84.50
25914;DHT22;13718;50.922;5.346;2022-09-02T03:33:11;20.20;84.00
25914;DHT22;13718;50.922;5.346;2022-09-02T03:35:39;20.20;83.80
25914;DHT22;13718;50.922;5.346;2022-09-02T03:38:05;20.20;83.90
25914;DHT22;13718;50.922;5.346;2022-09-02T03:40:31;20.20;84.00
25914;DHT22;13718;50.922;5.346;2022-09-02T03:42:56;20.20;83.90
25914;DHT22;13718;50.922;5.346;2022-09-02T03:45:23;20.20;84.00
25914;DHT22;13718;50.922;5.346;2022-09-02T03:47:49;20.10;84.10
25914;DHT22;13718;50.922;5.346;2022-09-02T03:50:28;20.10;83.80
25914;DHT22;13718;50.922;5.346;2022-09-02T03:52:54;20.30;83.40
25914;DHT22;13718;50.922;5.346;2022-09-02T03:55:20;20.30;83.00
25914;DHT22;13718;50.922;5.346;2022-09-02T03:57:46;20.30;82.80
25914;DHT22;13718;50.922;5.346;2022-09-02T04:00:15;20.30;83.30
25914;DHT22;13718;50.922;5.346;2022-09-02T04:02:42;20.30;83.20
25914;DHT22;13718;50.922;5.346;2022-09-02T04:05:08;20.30;83.30
25914;DHT22;13718;50.922;5.346;2022-09-02T04:07:34;20.40;82.90
25914;DHT22;13718;50.922;5.346;2022-09-02T04:10:00;20.40;82.80
25914;DHT22;13718;50.922;5.346;2022-09-02T04:12:27;20.40;82.50
25914;DHT22;13718;50.922;5.346;2022-09-02T04:14:53;20.40;82.70
25914;DHT22;13718;50.922;5.346;2022-09-02T04:17:18;20.50;82.50
25914;DHT22;13718;50.922;5.346;2022-09-02T04:19:44;20.40;82.60
25914;DHT22;13718;50.922;5.346;2022-09-02T04:22:09;20.50;82.40
25914;DHT22;13718;50.922;5.346;2022-09-02T04:24:35;20.40;82.50
25914;DHT22;13718;50.922;5.346;2022-09-02T04:27:01;20.30;83.00
25914;DHT22;13718;50.922;5.346;2022-09-02T04:29:27;20.30;83.70
25914;DHT22;13718;50.922;5.346;2022-09-02T04:31:52;20.30;82.80
25914;DHT22;13718;50.922;5.346;2022-09-02T04:34:18;20.30;82.80
25914;DHT22;13718;50.922;5.346;2022-09-02T04:36:44;20.40;82.50
25914;DHT22;13718;50.922;5.346;2022-09-02T04:39:09;20.30;82.80
25914;DHT22;13718;50.922;5.346;2022-09-02T04:41:36;20.30;82.90
25914;DHT22;13718;50.922;5.346;2022-09-02T04:44:03;20.40;82.90
25914;DHT22;13718;50.922;5.346;2022-09-02T04:46:29;20.30;83.10
25914;DHT22;13718;50.922;5.346;2022-09-02T04:48:55;20.30;82.90
25914;DHT22;13718;50.922;5.346;2022-09-02T04:51:23;20.40;83.20
25914;DHT22;13718;50.922;5.346;2022-09-02T04:53:50;20.30;83.30
25914;DHT22;13718;50.922;5.346;2022-09-02T04:56:20;20.30;83.30
25914;DHT22;13718;50.922;5.346;2022-09-02T04:58:46;20.40;82.90
25914;DHT22;13718;50.922;5.346;2022-09-02T05:01:18;20.40;83.70
25914;DHT22;13718;50.922;5.346;2022-09-02T05:03:46;20.30;83.50
25914;DHT22;13718;50.922;5.346;2022-09-02T05:06:16;20.30;83.70
25914;DHT22;13718;50.922;5.346;2022-09-02T05:08:43;20.20;84.10
25914;DHT22;13718;50.922;5.346;2022-09-02T05:11:16;20.20;84.20
25914;DHT22;13718;50.922;5.346;2022-09-02T05:13:46;20.10;84.50
25914;DHT22;13718;50.922;5.346;2022-09-02T05:16:17;20.20;84.20
25914;DHT22;13718;50.922;5.346;2022-09-02T05:18:42;20.30;83.80
25914;DHT22;13718;50.922;5.346;2022-09-02T05:21:09;20.20;84.00
25914;DHT22;13718;50.922;5.346;2022-09-02T05:23:35;20.30;83.70
25914;DHT22;13718;50.922;5.346;2022-09-02T05:26:08;20.30;84.40
25914;DHT22;13718;50.922;5.346;2022-09-02T05:28:35;20.40;83.50
25914;DHT22;13718;50.922;5.346;2022-09-02T05:31:06;20.30;83.80
25914;DHT22;13718;50.922;5.346;2022-09-02T05:33:33;20.30;84.10
25914;DHT22;13718;50.922;5.346;2022-09-02T05:36:02;20.30;84.20
25914;DHT22;13718;50.922;5.346;2022-09-02T05:38:28;20.20;84.20
25914;DHT22;13718;50.922;5.346;2022-09-02T05:40:53;20.10;84.60
25914;DHT22;13718;50.922;5.346;2022-09-02T05:43:20;20.40;83.90
25914;DHT22;13718;50.922;5.346;2022-09-02T05:45:47;20.40;83.70
25914;DHT22;13718;50.922;5.346;2022-09-02T05:48:13;20.40;84.70
25914;DHT22;13718;50.922;5.346;2022-09-02T05:50:57;20.30;84.20
25914;DHT22;13718;50.922;5.346;2022-09-02T05:53:23;20.40;83.80
25914;DHT22;13718;50.922;5.346;2022-09-02T05:55:51;20.40;83.90
25914;DHT22;13718;50.922;5.346;2022-09-02T05:58:16;20.50;83.50
25914;DHT22;13718;50.922;5.346;2022-09-02T06:00:42;20.70;83.20
25914;DHT22;13718;50.922;5.346;2022-09-02T06:03:08;20.70;82.80
25914;DHT22;13718;50.922;5.346;2022-09-02T06:05:34;20.70;83.00
25914;DHT22;13718;50.922;5.346;2022-09-02T06:08:01;20.50;84.00
25914;DHT22;13718;50.922;5.346;2022-09-02T06:10:27;20.60;83.60
25914;DHT22;13718;50.922;5.346;2022-09-02T06:12:53;20.60;84.10
25914;DHT22;13718;50.922;5.346;2022-09-02T06:15:18;20.70;83.80
25914;DHT22;13718;50.922;5.346;2022-09-02T06:17:44;20.80;83.40
25914;DHT22;13718;50.922;5.346;2022-09-02T06:20:10;20.80;83.30
25914;DHT22;13718;50.922;5.346;2022-09-02T06:22:35;20.70;83.90
25914;DHT22;13718;50.922;5.346;2022-09-02T06:25:01;20.70;84.00
25914;DHT22;13718;50.922;5.346;2022-09-02T06:27:27;20.70;84.10
25914;DHT22;13718;50.922;5.346;2022-09-02T06:29:52;20.70;84.20
25914;DHT22;13718;50.922;5.346;2022-09-02T06:32:18;20.80;84.60
25914;DHT22;13718;50.922;5.346;2022-09-02T06:34:44;20.80;84.50
25914;DHT22;13718;50.922;5.346;2022-09-02T06:37:10;20.80;84.80
25914;DHT22;13718;50.922;5.346;2022-09-02T06:39:35;20.80;84.70
25914;DHT22;13718;50.922;5.346;2022-09-02T06:42:02;20.90;84.60
25914;DHT22;13718;50.922;5.346;2022-09-02T06:44:28;21.10;84.30
25914;DHT22;13718;50.922;5.346;2022-09-02T06:46:56;21.20;83.80
25914;DHT22;13718;50.922;5.346;2022-09-02T06:49:23;21.30;83.50
25914;DHT22;13718;50.922;5.346;2022-09-02T06:51:50;21.40;83.00
25914;DHT22;13718;50.922;5.346;2022-09-02T06:54:18;21.40;83.40
25914;DHT22;13718;50.922;5.346;2022-09-02T06:56:45;21.60;82.90
25914;DHT22;13718;50.922;5.346;2022-09-02T06:59:10;21.60;82.60
25914;DHT22;13718;50.922;5.346;2022-09-02T07:01:36;21.80;82.40
25914;DHT22;13718;50.922;5.346;2022-09-02T07:04:03;21.90;82.10
25914;DHT22;13718;50.922;5.346;2022-09-02T07:06:49;21.90;82.40
25914;DHT22;13718;50.922;5.346;2022-09-02T07:09:20;22.10;82.00
25914;DHT22;13718;50.922;5.346;2022-09-02T07:11:47;22.00;82.10
25914;DHT22;13718;50.922;5.346;2022-09-02T07:14:18;22.20;81.10
25914;DHT22;13718;50.922;5.346;2022-09-02T07:16:47;22.30;81.20
25914;DHT22;13718;50.922;5.346;2022-09-02T07:19:13;22.40;81.20
25914;DHT22;13718;50.922;5.346;2022-09-02T07:21:39;22.30;81.50
25914;DHT22;13718;50.922;5.346;2022-09-02T07:24:06;22.30;81.40
25914;DHT22;13718;50.922;5.346;2022-09-02T07:26:32;22.40;81.60
25914;DHT22;13718;50.922;5.346;2022-09-02T07:28:57;22.70;80.90
25914;DHT22;13718;50.922;5.346;2022-09-02T07:31:23;22.80;81.00
25914;DHT22;13718;50.922;5.346;2022-09-02T07:33:49;22.90;80.00
25914;DHT22;13718;50.922;5.346;2022-09-02T07:36:15;23.20;79.00
25914;DHT22;13718;50.922;5.346;2022-09-02T07:38:41;23.30;78.90
25914;DHT22;13718;50.922;5.346;2022-09-02T07:41:08;23.40;80.00
25914;DHT22;13718;50.922;5.346;2022-09-02T07:43:36;23.60;79.40
25914;DHT22;13718;50.922;5.346;2022-09-02T07:46:03;23.80;78.50
25914;DHT22;13718;50.922;5.346;2022-09-02T07:48:30;24.10;77.80
25914;DHT22;13718;50.922;5.346;2022-09-02T07:50:56;24.40;77.00
25914;DHT22;13718;50.922;5.346;2022-09-02T07:53:23;25.00;75.10
25914;DHT22;13718;50.922;5.346;2022-09-02T07:55:49;25.10;73.40
25914;DHT22;13718;50.922;5.346;2022-09-02T07:58:16;25.30;74.10
25914;DHT22;13718;50.922;5.346;2022-09-02T08:00:44;25.80;73.30
25914;DHT22;13718;50.922;5.346;2022-09-02T08:03:11;26.00;71.40
25914;DHT22;13718;50.922;5.346;2022-09-02T08:05:37;26.20;71.60
25914;DHT22;13718;50.922;5.346;2022-09-02T08:08:05;26.30;70.90
25914;DHT22;13718;50.922;5.346;2022-09-02T08:10:32;26.90;69.50
25914;DHT22;13718;50.922;5.346;2022-09-02T08:12:59;27.60;68.60
25914;DHT22;13718;50.922;5.346;2022-09-02T08:15:26;28.10;66.10
25914;DHT22;13718;50.922;5.346;2022-09-02T08:17:54;28.00;66.40
25914;DHT22;13718;50.922;5.346;2022-09-02T08:20:20;28.00;66.80
25914;DHT22;13718;50.922;5.346;2022-09-02T08:22:45;27.70;67.20
25914;DHT22;13718;50.922;5.346;2022-09-02T08:25:11;27.60;66.00
25914;DHT22;13718;50.922;5.346;2022-09-02T08:27:37;27.50;66.50
25914;DHT22;13718;50.922;5.346;2022-09-02T08:30:04;27.50;67.70
25914;DHT22;13718;50.922;5.346;2022-09-02T08:32:30;27.30;67.70
25914;DHT22;13718;50.922;5.346;2022-09-02T08:35:00;27.30;68.00
25914;DHT22;13718;50.922;5.346;2022-09-02T08:37:28;27.30;68.40
25914;DHT22;13718;50.922;5.346;2022-09-02T08:39:56;27.40;68.70
25914;DHT22;13718;50.922;5.346;2022-09-02T08:42:34;27.70;68.20
25914;DHT22;13718;50.922;5.346;2022-09-02T08:45:35;27.60;66.60
25914;DHT22;13718;50.922;5.346;2022-09-02T08:51:09;27.30;67.30
25914;DHT22;13718;50.922;5.346;2022-09-02T08:53:50;27.30;67.40
25914;DHT22;13718;50.922;5.346;2022-09-02T08:56:17;27.50;67.10
25914;DHT22;13718;50.922;5.346;2022-09-02T08:58:45;27.60;67.40
25914;DHT22;13718;50.922;5.346;2022-09-02T09:01:40;27.50;66.80
25914;DHT22;13718;50.922;5.346;2022-09-02T09:12:12;27.10;68.10
25914;DHT22;13718;50.922;5.346;2022-09-02T09:14:43;27.10;68.70
25914;DHT22;13718;50.922;5.346;2022-09-02T09:19:59;27.20;66.60
25914;DHT22;13718;50.922;5.346;2022-09-02T09:22:32;27.10;67.00
25914;DHT22;13718;50.922;5.346;2022-09-02T09:25:03;27.30;67.60
25914;DHT22;13718;50.922;5.346;2022-09-02T09:27:31;27.40;67.80
25914;DHT22;13718;50.922;5.346;2022-09-02T09:29:58;27.70;67.00
25914;DHT22;13718;50.922;5.346;2022-09-02T09:32:32;27.80;64.80
25914;DHT22;13718;50.922;5.346;2022-09-02T09:35:08;28.10;64.70
25914;DHT22;13718;50.922;5.346;2022-09-02T09:37:39;28.10;64.10
25914;DHT22;13718;50.922;5.346;2022-09-02T09:42:56;28.10;62.90
25914;DHT22;13718;50.922;5.346;2022-09-02T09:45:42;28.00;63.70
25914;DHT22;13718;50.922;5.346;2022-09-02T09:48:27;28.20;63.30
25914;DHT22;13718;50.922;5.346;2022-09-02T09:53:33;28.40;62.00
25914;DHT22;13718;50.922;5.346;2022-09-02T10:09:03;27.90;63.20
25914;DHT22;13718;50.922;5.346;2022-09-02T10:11:31;28.10;59.80
25914;DHT22;13718;50.922;5.346;2022-09-02T10:14:03;28.20;60.00
25914;DHT22;13718;50.922;5.346;2022-09-02T10:47:36;28.10;54.40
25914;DHT22;13718;50.922;5.346;2022-09-02T10:50:19;28.00;54.30
25914;DHT22;13718;50.922;5.346;2022-09-02T10:53:12;28.10;54.60
25914;DHT22;13718;50.922;5.346;2022-09-02T10:56:17;28.30;54.90
25914;DHT22;13718;50.922;5.346;2022-09-02T10:58:52;28.60;53.70
25914;DHT22;13718;50.922;5.346;2022-09-02T11:01:30;28.90;53.50
25914;DHT22;13718;50.922;5.346;2022-09-02T11:05:06;29.00;53.50
25914;DHT22;13718;50.922;5.346;2022-09-02T11:07:03;29.20;52.50
25914;DHT22;13718;50.922;5.346;2022-09-02T11:09:32;29.20;52.30
25914;DHT22;13718;50.922;5.346;2022-09-02T11:17:27;29.30;52.50
25914;DHT22;13718;50.922;5.346;2022-09-02T11:20:16;29.30;52.30
25914;DHT22;13718;50.922;5.346;2022-09-02T11:23:02;29.20;51.80
25914;DHT22;13718;50.922;5.346;2022-09-02T11:25:40;28.90;52.00
25914;DHT22;13718;50.922;5.346;2022-09-02T11:28:21;28.80;52.20
25914;DHT22;13718;50.922;5.346;2022-09-02T11:36:38;28.70;52.70
25914;DHT22;13718;50.922;5.346;2022-09-02T11:39:12;28.50;53.20
25914;DHT22;13718;50.922;5.346;2022-09-02T11:55:27;28.30;53.30
25914;DHT22;13718;50.922;5.346;2022-09-02T11:57:56;28.30;53.30
25914;DHT22;13718;50.922;5.346;2022-09-02T12:03:24;28.20;54.10
25914;DHT22;13718;50.922;5.346;2022-09-02T12:06:11;28.00;54.20
25914;DHT22;13718;50.922;5.346;2022-09-02T12:11:32;28.30;55.40
25914;DHT22;13718;50.922;5.346;2022-09-02T12:13:54;28.30;55.00
25914;DHT22;13718;50.922;5.346;2022-09-02T12:21:26;28.00;56.40
25914;DHT22;13718;50.922;5.346;2022-09-02T12:31:47;28.00;55.30
25914;DHT22;13718;50.922;5.346;2022-09-02T12:36:54;27.90;55.20
25914;DHT22;13718;50.922;5.346;2022-09-02T12:42:15;28.00;54.30
25914;DHT22;13718;50.922;5.346;2022-09-02T12:50:09;28.40;53.70
25914;DHT22;13718;50.922;5.346;2022-09-02T12:52:42;28.50;54.00
25914;DHT22;13718;50.922;5.346;2022-09-02T12:55:27;28.70;52.70
25914;DHT22;13718;50.922;5.346;2022-09-02T12:58:04;28.80;53.00
25914;DHT22;13718;50.922;5.346;2022-09-02T13:00:40;28.90;53.20
25914;DHT22;13718;50.922;5.346;2022-09-02T13:06:11;28.90;53.30
25914;DHT22;13718;50.922;5.346;2022-09-02T13:11:57;29.10;53.60
25914;DHT22;13718;50.922;5.346;2022-09-02T13:14:45;29.30;53.10
25914;DHT22;13718;50.922;5.346;2022-09-02T13:31:23;28.60;52.20
25914;DHT22;13718;50.922;5.346;2022-09-02T13:33:58;28.60;52.30
25914;DHT22;13718;50.922;5.346;2022-09-02T13:36:48;28.50;52.20
25914;DHT22;13718;50.922;5.346;2022-09-02T13:39:24;28.30;53.40
25914;DHT22;13718;50.922;5.346;2022-09-02T13:41:50;28.40;52.50
25914;DHT22;13718;50.922;5.346;2022-09-02T13:44:27;28.40;53.00
25914;DHT22;13718;50.922;5.346;2022-09-02T13:47:03;28.40;52.90
25914;DHT22;13718;50.922;5.346;2022-09-02T13:49:36;28.40;52.80
25914;DHT22;13718;50.922;5.346;2022-09-02T13:52:06;28.50;52.00
25914;DHT22;13718;50.922;5.346;2022-09-02T13:54:37;28.30;52.40
25914;DHT22;13718;50.922;5.346;2022-09-02T13:57:06;28.30;52.50
25914;DHT22;13718;50.922;5.346;2022-09-02T13:59:58;28.40;53.10
25914;DHT22;13718;50.922;5.346;2022-09-02T14:02:29;28.40;52.60
25914;DHT22;13718;50.922;5.346;2022-09-02T14:05:19;28.40;52.70
25914;DHT22;13718;50.922;5.346;2022-09-02T14:07:54;28.40;52.60
25914;DHT22;13718;50.922;5.346;2022-09-02T14:10:23;28.50;52.30
25914;DHT22;13718;50.922;5.346;2022-09-02T14:12:51;28.40;52.20
25914;DHT22;13718;50.922;5.346;2022-09-02T14:15:24;28.40;52.70
25914;DHT22;13718;50.922;5.346;2022-09-02T14:18:20;28.50;52.60
25914;DHT22;13718;50.922;5.346;2022-09-02T14:20:58;28.60;52.30
25914;DHT22;13718;50.922;5.346;2022-09-02T14:23:30;28.70;51.80
25914;DHT22;13718;50.922;5.346;2022-09-02T14:26:00;28.70;52.00
25914;DHT22;13718;50.922;5.346;2022-09-02T14:28:31;28.50;52.20
25914;DHT22;13718;50.922;5.346;2022-09-02T14:31:05;28.50;52.20
25914;DHT22;13718;50.922;5.346;2022-09-02T14:33:45;28.50;52.00
25914;DHT22;13718;50.922;5.346;2022-09-02T14:43:47;28.50;51.50
25914;DHT22;13718;50.922;5.346;2022-09-02T14:48:57;28.60;51.50
25914;DHT22;13718;50.922;5.346;2022-09-02T14:51:48;28.50;52.10
25914;DHT22;13718;50.922;5.346;2022-09-02T14:57:02;28.40;52.10
25914;DHT22;13718;50.922;5.346;2022-09-02T14:59:28;28.40;52.00
25914;DHT22;13718;50.922;5.346;2022-09-02T15:01:55;28.20;52.40
25914;DHT22;13718;50.922;5.346;2022-09-02T15:04:22;28.20;51.90
25914;DHT22;13718;50.922;5.346;2022-09-02T15:06:48;28.30;52.20
25914;DHT22;13718;50.922;5.346;2022-09-02T15:09:14;28.20;52.30
25914;DHT22;13718;50.922;5.346;2022-09-02T15:11:45;28.20;52.60
25914;DHT22;13718;50.922;5.346;2022-09-02T15:14:12;28.20;52.50
25914;DHT22;13718;50.922;5.346;2022-09-02T15:16:38;28.10;52.40
25914;DHT22;13718;50.922;5.346;2022-09-02T15:19:04;28.10;52.60
25914;DHT22;13718;50.922;5.346;2022-09-02T15:21:30;28.10;52.90
25914;DHT22;13718;50.922;5.346;2022-09-02T15:23:56;28.20;52.10
25914;DHT22;13718;50.922;5.346;2022-09-02T15:26:21;28.20;52.10
25914;DHT22;13718;50.922;5.346;2022-09-02T15:28:47;28.30;52.40
25914;DHT22;13718;50.922;5.346;2022-09-02T15:31:14;28.20;53.10
25914;DHT22;13718;50.922;5.346;2022-09-02T15:33:39;28.30;51.80
25914;DHT22;13718;50.922;5.346;2022-09-02T15:38:32;28.10;52.10
25914;DHT22;13718;50.922;5.346;2022-09-02T15:41:12;27.80;52.80
25914;DHT22;13718;50.922;5.346;2022-09-02T15:43:37;28.10;53.00
25914;DHT22;13718;50.922;5.346;2022-09-02T15:46:33;28.20;51.90
25914;DHT22;13718;50.922;5.346;2022-09-02T15:49:05;28.10;52.10
25914;DHT22;13718;50.922;5.346;2022-09-02T15:51:31;28.10;52.20
25914;DHT22;13718;50.922;5.346;2022-09-02T15:54:01;28.20;52.10
25914;DHT22;13718;50.922;5.346;2022-09-02T15:56:29;28.20;52.20
25914;DHT22;13718;50.922;5.346;2022-09-02T15:59:03;28.10;52.30
25914;DHT22;13718;50.922;5.346;2022-09-02T16:01:32;28.10;52.40
25914;DHT22;13718;50.922;5.346;2022-09-02T16:03:59;28.00;52.30
25914;DHT22;13718;50.922;5.346;2022-09-02T16:06:27;28.00;52.40
25914;DHT22;13718;50.922;5.346;2022-09-02T16:08:53;28.00;52.20
25914;DHT22;13718;50.922;5.346;2022-09-02T16:11:19;28.10;52.40
25914;DHT22;13718;50.922;5.346;2022-09-02T16:13:45;28.10;52.50
25914;DHT22;13718;50.922;5.346;2022-09-02T16:16:12;28.20;51.70
25914;DHT22;13718;50.922;5.346;2022-09-02T16:18:40;28.00;52.30
25914;DHT22;13718;50.922;5.346;2022-09-02T16:21:07;27.90;52.60
25914;DHT22;13718;50.922;5.346;2022-09-02T16:23:34;28.00;52.20
25914;DHT22;13718;50.922;5.346;2022-09-02T16:26:07;28.00;52.50
25914;DHT22;13718;50.922;5.346;2022-09-02T16:28:38;27.90;52.80
25914;DHT22;13718;50.922;5.346;2022-09-02T16:31:05;27.90;53.20
25914;DHT22;13718;50.922;5.346;2022-09-02T16:33:31;27.90;53.50
25914;DHT22;13718;50.922;5.346;2022-09-02T16:35:57;27.70;53.00
25914;DHT22;13718;50.922;5.346;2022-09-02T16:38:22;27.80;53.00
25914;DHT22;13718;50.922;5.346;2022-09-02T16:40:52;27.70;52.80
25914;DHT22;13718;50.922;5.346;2022-09-02T16:43:19;27.70;52.70
25914;DHT22;13718;50.922;5.346;2022-09-02T16:45:46;27.50;53.00
25914;DHT22;13718;50.922;5.346;2022-09-02T16:48:12;27.50;53.10
25914;DHT22;13718;50.922;5.346;2022-09-02T16:50:38;27.40;53.40
25914;DHT22;13718;50.922;5.346;2022-09-02T16:53:03;27.40;53.00
25914;DHT22;13718;50.922;5.346;2022-09-02T16:55:29;27.40;53.20
25914;DHT22;13718;50.922;5.346;2022-09-02T16:57:55;27.40;53.80
25914;DHT22;13718;50.922;5.346;2022-09-02T17:00:22;27.30;53.10
25914;DHT22;13718;50.922;5.346;2022-09-02T17:02:48;27.30;52.90
25914;DHT22;13718;50.922;5.346;2022-09-02T17:05:16;27.20;52.90
25914;DHT22;13718;50.922;5.346;2022-09-02T17:07:42;27.10;53.20
25914;DHT22;13718;50.922;5.346;2022-09-02T17:10:09;27.10;53.00
25914;DHT22;13718;50.922;5.346;2022-09-02T17:12:35;27.00;53.10
25914;DHT22;13718;50.922;5.346;2022-09-02T17:15:00;27.00;53.20
25914;DHT22;13718;50.922;5.346;2022-09-02T17:17:27;27.00;52.80
25914;DHT22;13718;50.922;5.346;2022-09-02T17:19:53;27.00;53.00
25914;DHT22;13718;50.922;5.346;2022-09-02T17:22:18;26.80;53.40
25914;DHT22;13718;50.922;5.346;2022-09-02T17:24:44;26.80;53.40
25914;DHT22;13718;50.922;5.346;2022-09-02T17:27:10;26.80;53.30
25914;DHT22;13718;50.922;5.346;2022-09-02T17:29:36;26.70;53.20
25914;DHT22;13718;50.922;5.346;2022-09-02T17:32:04;26.80;53.20
25914;DHT22;13718;50.922;5.346;2022-09-02T17:34:30;26.90;53.20
25914;DHT22;13718;50.922;5.346;2022-09-02T17:36:58;26.80;53.20
25914;DHT22;13718;50.922;5.346;2022-09-02T17:39:23;26.70;53.20
25914;DHT22;13718;50.922;5.346;2022-09-02T17:41:49;26.60;53.40
25914;DHT22;13718;50.922;5.346;2022-09-02T17:44:29;26.60;53.20
25914;DHT22;13718;50.922;5.346;2022-09-02T17:47:04;26.50;53.20
25914;DHT22;13718;50.922;5.346;2022-09-02T17:49:31;26.40;53.10
25914;DHT22;13718;50.922;5.346;2022-09-02T17:51:57;26.40;53.30
25914;DHT22;13718;50.922;5.346;2022-09-02T17:54:25;26.30;53.50
25914;DHT22;13718;50.922;5.346;2022-09-02T18:00:13;26.10;53.90
25914;DHT22;13718;50.922;5.346;2022-09-02T18:05:44;26.00;54.50
25914;DHT22;13718;50.922;5.346;2022-09-02T18:11:07;25.90;54.40
25914;DHT22;13718;50.922;5.346;2022-09-02T18:13:49;25.70;54.40
25914;DHT22;13718;50.922;5.346;2022-09-02T18:16:44;25.80;54.50
25914;DHT22;13718;50.922;5.346;2022-09-02T18:19:16;25.80;54.40
25914;DHT22;13718;50.922;5.346;2022-09-02T18:24:50;25.70;54.30
25914;DHT22;13718;50.922;5.346;2022-09-02T18:30:09;25.50;54.50
25914;DHT22;13718;50.922;5.346;2022-09-02T18:38:24;25.40;54.40
25914;DHT22;13718;50.922;5.346;2022-09-02T18:46:15;25.40;54.80
25914;DHT22;13718;50.922;5.346;2022-09-02T18:48:42;25.20;54.80